sensor_id;sensor_type;location;lat;lon;timestamp;pressure;altitude;pressure_sealevel;temperature;humidity
11605;BME280;5858;43.076;25.626;2023-04-28T00:00:35;99504.00;;;9.68;93.22
11605;BME280;5858;43.076;25.626;2023-04-28T00:03:02;99525.81;;;9.80;93.15
11605;BME280;5858;43.076;25.626;2023-04-28T00:05:30;99454.81;;;9.46;95.14
11605;BME280;5858;43.076;25.626;2023-04-28T00:07:57;99533.28;;;9.93;98.00
11605;BME280;5858;43.076;25.626;2023-04-28T00:10:24;99509.03;;;9.63;100.00
11605;BME280;5858;43.076;25.626;2023-04-28T00:12:51;99491.63;;;9.67;100.00
11605;BME280;5858;43.076;25.626;2023-04-28T00:15:18;99537.69;;;9.77;100.00
11605;BME280;5858;43.076;25.626;2023-04-28T00:17:45;99467.22;;;9.31;100.00
11605;BME280;5858;43.076;25.626;2023-04-28T00:20:12;99530.34;;;9.71;100.00
11605;BME280;5858;43.076;25.626;2023-04-28T00:22:40;99488.38;;;9.49;100.00
11605;BME280;5858;43.076;25.626;2023-04-28T00:25:08;99506.47;;;9.70;100.00
11605;BME280;5858;43.076;25.626;2023-04-28T00:27:35;99577.72;;;9.94;100.00
11605;BME280;5858;43.076;25.626;2023-04-28T00:30:03;99525.41;;;9.44;100.00
11605;BME280;5858;43.076;25.626;2023-04-28T00:32:30;99579.63;;;9.69;100.00
11605;BME280;5858;43.076;25.626;2023-04-28T00:34:57;99553.94;;;9.60;100.00
11605;BME280;5858;43.076;25.626;2023-04-28T00:37:24;99482.44;;;9.14;100.00
11605;BME280;5858;43.076;25.626;2023-04-28T00:39:55;99548.44;;;9.45;100.00
11605;BME280;5858;43.076;25.626;2023-04-28T00:42:22;99587.50;;;9.62;100.00
11605;BME280;5858;43.076;25.626;2023-04-28T00:44:49;99597.16;;;9.71;100.00
11605;BME280;5858;43.076;25.626;2023-04-28T00:47:17;99520.81;;;9.22;100.00
11605;BME280;5858;43.076;25.626;2023-04-28T00:49:44;99566.66;;;9.41;100.00
11605;BME280;5858;43.076;25.626;2023-04-28T00:52:14;99555.47;;;9.38;100.00
11605;BME280;5858;43.076;25.626;2023-04-28T00:54:41;99595.19;;;9.57;100.00
11605;BME280;5858;43.076;25.626;2023-04-28T00:57:10;99534.00;;;9.07;100.00
11605;BME280;5858;43.076;25.626;2023-04-28T00:59:37;99598.88;;;9.40;100.00
11605;BME280;5858;43.076;25.626;2023-04-28T01:02:04;99600.56;;;9.49;100.00
11605;BME280;5858;43.076;25.626;2023-04-28T01:04:32;99591.38;;;9.52;100.00
11605;BME280;5858;43.076;25.626;2023-04-28T01:06:59;99542.34;;;9.20;100.00
11605;BME280;5858;43.076;25.626;2023-04-28T01:09:27;99545.69;;;9.14;100.00
11605;BME280;5858;43.076;25.626;2023-04-28T01:11:54;99579.53;;;9.46;100.00
11605;BME280;5858;43.076;25.626;2023-04-28T01:14:24;99611.03;;;9.67;100.00
11605;BME280;5858;43.076;25.626;2023-04-28T01:16:52;99511.31;;;9.11;100.00
11605;BME280;5858;43.076;25.626;2023-04-28T01:19:21;99603.38;;;9.56;100.00
11605;BME280;5858;43.076;25.626;2023-04-28T01:21:49;99462.63;;;8.76;100.00
11605;BME280;5858;43.076;25.626;2023-04-28T01:24:17;99556.31;;;9.30;100.00
11605;BME280;5858;43.076;25.626;2023-04-28T01:26:44;99608.88;;;9.62;100.00
11605;BME280;5858;43.076;25.626;2023-04-28T01:29:11;99501.81;;;8.84;100.00
11605;BME280;5858;43.076;25.626;2023-04-28T01:31:38;99581.88;;;9.25;100.00
11605;BME280;5858;43.076;25.626;2023-04-28T01:34:05;99553.69;;;9.14;100.00
11605;BME280;5858;43.076;25.626;2023-04-28T01:36:32;99628.25;;;9.56;100.00
11605;BME280;5858;43.076;25.626;2023-04-28T01:38:59;99582.53;;;9.35;100.00
11605;BME280;5858;43.076;25.626;2023-04-28T01:41:28;99540.31;;;8.98;100.00
11605;BME280;5858;43.076;25.626;2023-04-28T01:43:55;99515.31;;;8.82;100.00
11605;BME280;5858;43.076;25.626;2023-04-28T01:46:22;99558.19;;;8.81;95.61
11605;BME280;5858;43.076;25.626;2023-04-28T01:48:49;99627.59;;;9.22;92.41
11605;BME280;5858;43.076;25.626;2023-04-28T01:51:16;99636.41;;;8.98;87.31
11605;BME280;5858;43.076;25.626;2023-04-28T01:53:43;99636.94;;;9.01;87.37
11605;BME280;5858;43.076;25.626;2023-04-28T01:56:10;99609.38;;;8.68;86.18
11605;BME280;5858;43.076;25.626;2023-04-28T01:58:38;99623.72;;;8.75;86.10
11605;BME280;5858;43.076;25.626;2023-04-28T02:01:05;99630.88;;;8.83;86.18
11605;BME280;5858;43.076;25.626;2023-04-28T02:03:32;99635.91;;;8.86;88.26
11605;BME280;5858;43.076;25.626;2023-04-28T02:05:59;99600.63;;;8.50;85.88
11605;BME280;5858;43.076;25.626;2023-04-28T02:08:26;99589.63;;;8.45;86.96
11605;BME280;5858;43.076;25.626;2023-04-28T02:10:53;99623.00;;;8.57;86.80
11605;BME280;5858;43.076;25.626;2023-04-28T02:13:21;99637.03;;;8.59;87.67
11605;BME280;5858;43.076;25.626;2023-04-28T02:15:49;99637.19;;;8.58;86.94
11605;BME280;5858;43.076;25.626;2023-04-28T02:18:16;99650.88;;;8.71;86.71
11605;BME280;5858;43.076;25.626;2023-04-28T02:20:43;99637.69;;;8.61;86.87
11605;BME280;5858;43.076;25.626;2023-04-28T02:23:10;99577.19;;;8.11;86.97
11605;BME280;5858;43.076;25.626;2023-04-28T02:25:37;99650.03;;;8.62;87.15
11605;BME280;5858;43.076;25.626;2023-04-28T02:28:04;99650.88;;;8.71;88.32
11605;BME280;5858;43.076;25.626;2023-04-28T02:30:31;99605.09;;;8.33;86.59
11605;BME280;5858;43.076;25.626;2023-04-28T02:33:02;99597.72;;;8.27;85.75
11605;BME280;5858;43.076;25.626;2023-04-28T02:35:30;99664.19;;;8.63;84.19
11605;BME280;5858;43.076;25.626;2023-04-28T02:37:56;99549.09;;;7.91;83.27
11605;BME280;5858;43.076;25.626;2023-04-28T02:40:23;99652.69;;;8.54;84.40
11605;BME280;5858;43.076;25.626;2023-04-28T02:42:50;99587.66;;;8.05;83.23
11605;BME280;5858;43.076;25.626;2023-04-28T02:45:17;99656.63;;;8.50;82.29
11605;BME280;5858;43.076;25.626;2023-04-28T02:47:44;99554.06;;;7.86;83.23
11605;BME280;5858;43.076;25.626;2023-04-28T02:50:13;99590.19;;;8.14;82.59
11605;BME280;5858;43.076;25.626;2023-04-28T02:52:40;99679.72;;;8.67;81.89
11605;BME280;5858;43.076;25.626;2023-04-28T02:55:07;99597.03;;;8.25;81.92
11605;BME280;5858;43.076;25.626;2023-04-28T02:57:34;99657.84;;;8.56;80.52
11605;BME280;5858;43.076;25.626;2023-04-28T03:00:01;99661.13;;;8.49;81.07
11605;BME280;5858;43.076;25.626;2023-04-28T03:02:29;99614.66;;;8.10;82.45
11605;BME280;5858;43.076;25.626;2023-04-28T03:04:56;99642.47;;;8.15;83.99
11605;BME280;5858;43.076;25.626;2023-04-28T03:07:25;99664.94;;;8.39;83.77
11605;BME280;5858;43.076;25.626;2023-04-28T03:09:52;99671.63;;;8.51;83.84
11605;BME280;5858;43.076;25.626;2023-04-28T03:12:19;99709.94;;;8.84;82.76
11605;BME280;5858;43.076;25.626;2023-04-28T03:14:46;99611.78;;;8.37;83.13
11605;BME280;5858;43.076;25.626;2023-04-28T03:17:13;99662.03;;;8.66;84.24
11605;BME280;5858;43.076;25.626;2023-04-28T03:19:40;99685.78;;;8.94;87.29
11605;BME280;5858;43.076;25.626;2023-04-28T03:22:07;99703.19;;;9.14;87.52
11605;BME280;5858;43.076;25.626;2023-04-28T03:24:35;99701.69;;;9.11;87.24
11605;BME280;5858;43.076;25.626;2023-04-28T03:27:02;99692.00;;;9.10;87.32
11605;BME280;5858;43.076;25.626;2023-04-28T03:29:30;99672.44;;;8.94;89.20
11605;BME280;5858;43.076;25.626;2023-04-28T03:31:57;99627.38;;;8.66;90.29
11605;BME280;5858;43.076;25.626;2023-04-28T03:34:24;99602.59;;;8.40;90.70
11605;BME280;5858;43.076;25.626;2023-04-28T03:36:51;99717.53;;;9.29;91.32
11605;BME280;5858;43.076;25.626;2023-04-28T03:39:18;99732.41;;;9.40;91.60
11605;BME280;5858;43.076;25.626;2023-04-28T03:41:46;99725.22;;;9.40;90.04
11605;BME280;5858;43.076;25.626;2023-04-28T03:44:13;99703.53;;;9.27;91.31
11605;BME280;5858;43.076;25.626;2023-04-28T03:46:40;99719.22;;;9.30;92.67
11605;BME280;5858;43.076;25.626;2023-04-28T03:49:07;99695.00;;;9.07;94.58
11605;BME280;5858;43.076;25.626;2023-04-28T03:51:34;99630.00;;;8.58;95.34
11605;BME280;5858;43.076;25.626;2023-04-28T03:54:01;99750.25;;;9.23;95.52
11605;BME280;5858;43.076;25.626;2023-04-28T03:56:28;99671.91;;;8.74;94.94
11605;BME280;5858;43.076;25.626;2023-04-28T03:58:57;99709.63;;;8.87;95.29
11605;BME280;5858;43.076;25.626;2023-04-28T04:01:24;99617.25;;;8.36;94.09
11605;BME280;5858;43.076;25.626;2023-04-28T04:03:51;99766.59;;;9.12;94.18
11605;BME280;5858;43.076;25.626;2023-04-28T04:06:18;99669.88;;;8.60;93.42
11605;BME280;5858;43.076;25.626;2023-04-28T04:08:45;99729.78;;;8.81;92.72
11605;BME280;5858;43.076;25.626;2023-04-28T04:11:12;99718.75;;;8.76;93.70
11605;BME280;5858;43.076;25.626;2023-04-28T04:13:39;99738.00;;;8.96;94.45
11605;BME280;5858;43.076;25.626;2023-04-28T04:16:07;99766.28;;;9.23;94.66
11605;BME280;5858;43.076;25.626;2023-04-28T04:18:34;99765.09;;;9.26;94.19
11605;BME280;5858;43.076;25.626;2023-04-28T04:21:02;99769.47;;;9.35;94.00
11605;BME280;5858;43.076;25.626;2023-04-28T04:23:29;99766.63;;;9.44;93.27
11605;BME280;5858;43.076;25.626;2023-04-28T04:25:56;99772.69;;;9.55;92.52
11605;BME280;5858;43.076;25.626;2023-04-28T04:28:23;99733.56;;;9.37;92.58
11605;BME280;5858;43.076;25.626;2023-04-28T04:30:50;99776.84;;;9.57;94.11
11605;BME280;5858;43.076;25.626;2023-04-28T04:33:19;99782.38;;;9.64;94.91
11605;BME280;5858;43.076;25.626;2023-04-28T04:35:46;99709.19;;;9.08;91.62
11605;BME280;5858;43.076;25.626;2023-04-28T04:38:13;99748.09;;;9.35;89.46
11605;BME280;5858;43.076;25.626;2023-04-28T04:40:40;99749.25;;;9.24;84.18
11605;BME280;5858;43.076;25.626;2023-04-28T04:43:07;99784.13;;;9.23;81.88
11605;BME280;5858;43.076;25.626;2023-04-28T04:45:34;99756.47;;;8.90;83.13
11605;BME280;5858;43.076;25.626;2023-04-28T04:48:01;99655.13;;;8.47;83.12
11605;BME280;5858;43.076;25.626;2023-04-28T04:50:30;99762.25;;;9.11;83.72
11605;BME280;5858;43.076;25.626;2023-04-28T04:52:58;99754.09;;;9.21;84.20
11605;BME280;5858;43.076;25.626;2023-04-28T04:55:25;99739.53;;;9.07;84.41
11605;BME280;5858;43.076;25.626;2023-04-28T04:57:54;99783.00;;;9.41;85.31
11605;BME280;5858;43.076;25.626;2023-04-28T05:00:21;99799.22;;;9.56;84.86
11605;BME280;5858;43.076;25.626;2023-04-28T05:02:48;99805.09;;;9.68;83.43
11605;BME280;5858;43.076;25.626;2023-04-28T05:05:15;99808.41;;;9.62;84.29
11605;BME280;5858;43.076;25.626;2023-04-28T05:07:43;99739.38;;;9.08;83.29
11605;BME280;5858;43.076;25.626;2023-04-28T05:10:19;99693.78;;;8.94;81.59
11605;BME280;5858;43.076;25.626;2023-04-28T05:12:46;99787.22;;;9.68;81.95
11605;BME280;5858;43.076;25.626;2023-04-28T05:15:13;99774.34;;;9.88;82.01
11605;BME280;5858;43.076;25.626;2023-04-28T05:17:40;99826.84;;;10.05;81.94
11605;BME280;5858;43.076;25.626;2023-04-28T05:20:08;99748.28;;;9.74;82.50
11605;BME280;5858;43.076;25.626;2023-04-28T05:22:35;99750.13;;;9.90;82.81
11605;BME280;5858;43.076;25.626;2023-04-28T05:25:05;99766.00;;;9.91;80.80
11605;BME280;5858;43.076;25.626;2023-04-28T05:27:32;99812.47;;;10.23;81.00
11605;BME280;5858;43.076;25.626;2023-04-28T05:30:02;99827.78;;;10.61;79.03
11605;BME280;5858;43.076;25.626;2023-04-28T05:32:30;99819.91;;;10.68;80.35
11605;BME280;5858;43.076;25.626;2023-04-28T05:34:57;99718.88;;;10.23;77.40
11605;BME280;5858;43.076;25.626;2023-04-28T05:37:24;99774.25;;;10.69;77.51
11605;BME280;5858;43.076;25.626;2023-04-28T05:39:51;99856.16;;;11.34;78.23
11605;BME280;5858;43.076;25.626;2023-04-28T05:42:20;99774.22;;;11.17;77.34
11605;BME280;5858;43.076;25.626;2023-04-28T05:44:47;99839.34;;;11.48;74.28
11605;BME280;5858;43.076;25.626;2023-04-28T05:47:14;99828.69;;;11.40;75.36
11605;BME280;5858;43.076;25.626;2023-04-28T05:49:41;99848.88;;;11.82;76.07
11605;BME280;5858;43.076;25.626;2023-04-28T05:52:08;99853.13;;;11.99;74.17
11605;BME280;5858;43.076;25.626;2023-04-28T05:54:35;99788.19;;;11.58;73.20
11605;BME280;5858;43.076;25.626;2023-04-28T05:57:04;99736.00;;;11.68;72.77
11605;BME280;5858;43.076;25.626;2023-04-28T05:59:33;99872.03;;;12.81;70.24
11605;BME280;5858;43.076;25.626;2023-04-28T06:02:00;99795.69;;;12.75;67.87
11605;BME280;5858;43.076;25.626;2023-04-28T06:04:27;99803.41;;;12.93;63.17
11605;BME280;5858;43.076;25.626;2023-04-28T06:06:54;99745.50;;;12.76;55.17
11605;BME280;5858;43.076;25.626;2023-04-28T06:09:21;99737.94;;;12.79;58.54
11605;BME280;5858;43.076;25.626;2023-04-28T06:11:48;99866.31;;;13.79;57.07
11605;BME280;5858;43.076;25.626;2023-04-28T06:14:18;99820.00;;;14.05;55.20
11605;BME280;5858;43.076;25.626;2023-04-28T06:16:52;99823.25;;;14.22;52.02
11605;BME280;5858;43.076;25.626;2023-04-28T06:19:19;99874.75;;;14.61;48.11
11605;BME280;5858;43.076;25.626;2023-04-28T06:21:48;99820.06;;;13.90;43.45
11605;BME280;5858;43.076;25.626;2023-04-28T06:24:17;99761.47;;;14.13;45.03
11605;BME280;5858;43.076;25.626;2023-04-28T06:26:46;99853.41;;;15.22;41.81
11605;BME280;5858;43.076;25.626;2023-04-28T06:29:16;99790.38;;;15.30;42.40
11605;BME280;5858;43.076;25.626;2023-04-28T06:31:45;99785.69;;;15.58;42.83
11605;BME280;5858;43.076;25.626;2023-04-28T06:34:13;99722.13;;;15.29;42.03
11605;BME280;5858;43.076;25.626;2023-04-28T06:36:41;99843.91;;;15.94;41.15
11605;BME280;5858;43.076;25.626;2023-04-28T06:39:09;99804.44;;;15.86;41.14
11605;BME280;5858;43.076;25.626;2023-04-28T06:41:42;99843.97;;;16.27;41.61
11605;BME280;5858;43.076;25.626;2023-04-28T06:44:09;99763.53;;;15.63;41.00
11605;BME280;5858;43.076;25.626;2023-04-28T06:46:36;99788.06;;;16.08;41.52
11605;BME280;5858;43.076;25.626;2023-04-28T06:49:05;99776.44;;;15.87;40.62
11605;BME280;5858;43.076;25.626;2023-04-28T06:51:39;99779.72;;;15.69;39.95
11605;BME280;5858;43.076;25.626;2023-04-28T06:54:06;99759.88;;;15.23;39.58
11605;BME280;5858;43.076;25.626;2023-04-28T06:56:34;99777.50;;;14.49;39.75
11605;BME280;5858;43.076;25.626;2023-04-28T06:59:01;99841.88;;;15.07;42.81
11605;BME280;5858;43.076;25.626;2023-04-28T07:01:28;99795.56;;;14.84;43.33
11605;BME280;5858;43.076;25.626;2023-04-28T07:03:56;99729.72;;;14.58;42.80
11605;BME280;5858;43.076;25.626;2023-04-28T07:06:23;99774.81;;;14.84;41.99
11605;BME280;5858;43.076;25.626;2023-04-28T07:08:53;99831.25;;;14.92;42.46
11605;BME280;5858;43.076;25.626;2023-04-28T07:11:20;99833.50;;;15.23;42.92
11605;BME280;5858;43.076;25.626;2023-04-28T07:13:48;99808.09;;;15.04;43.71
11605;BME280;5858;43.076;25.626;2023-04-28T07:16:16;99802.94;;;15.09;40.29
11605;BME280;5858;43.076;25.626;2023-04-28T07:18:43;99814.25;;;15.39;41.36
11605;BME280;5858;43.076;25.626;2023-04-28T07:21:10;99759.00;;;15.16;40.23
11605;BME280;5858;43.076;25.626;2023-04-28T07:23:38;99774.00;;;15.38;39.06
11605;BME280;5858;43.076;25.626;2023-04-28T07:26:07;99776.78;;;15.58;38.58
11605;BME280;5858;43.076;25.626;2023-04-28T07:28:40;99780.56;;;15.63;38.34
11605;BME280;5858;43.076;25.626;2023-04-28T07:31:07;99832.31;;;16.13;38.94
11605;BME280;5858;43.076;25.626;2023-04-28T07:33:34;99764.28;;;15.50;36.74
11605;BME280;5858;43.076;25.626;2023-04-28T07:36:01;99824.22;;;16.13;38.54
11605;BME280;5858;43.076;25.626;2023-04-28T07:38:28;99796.38;;;16.19;34.69
11605;BME280;5858;43.076;25.626;2023-04-28T07:40:56;99760.44;;;15.79;33.61
11605;BME280;5858;43.076;25.626;2023-04-28T07:43:24;99793.88;;;15.98;37.80
11605;BME280;5858;43.076;25.626;2023-04-28T07:45:52;99723.50;;;15.73;35.59
11605;BME280;5858;43.076;25.626;2023-04-28T07:48:19;99751.50;;;15.85;36.40
11605;BME280;5858;43.076;25.626;2023-04-28T07:50:48;99783.50;;;15.95;34.84
11605;BME280;5858;43.076;25.626;2023-04-28T07:53:16;99820.47;;;16.27;35.31
11605;BME280;5858;43.076;25.626;2023-04-28T07:55:43;99807.78;;;16.41;37.21
11605;BME280;5858;43.076;25.626;2023-04-28T07:58:10;99719.75;;;15.67;35.21
11605;BME280;5858;43.076;25.626;2023-04-28T08:00:39;99805.72;;;16.63;37.49
11605;BME280;5858;43.076;25.626;2023-04-28T08:03:08;99761.66;;;16.56;37.45
11605;BME280;5858;43.076;25.626;2023-04-28T08:05:37;99818.34;;;16.89;34.86
11605;BME280;5858;43.076;25.626;2023-04-28T08:08:05;99743.19;;;16.06;37.34
11605;BME280;5858;43.076;25.626;2023-04-28T08:10:32;99804.25;;;16.74;36.90
11605;BME280;5858;43.076;25.626;2023-04-28T08:12:59;99826.41;;;17.02;35.58
11605;BME280;5858;43.076;25.626;2023-04-28T08:15:27;99728.06;;;16.12;33.99
11605;BME280;5858;43.076;25.626;2023-04-28T08:17:56;99661.19;;;16.01;35.97
11605;BME280;5858;43.076;25.626;2023-04-28T08:20:23;99736.66;;;16.80;35.41
11605;BME280;5858;43.076;25.626;2023-04-28T08:22:50;99744.72;;;16.93;33.74
11605;BME280;5858;43.076;25.626;2023-04-28T08:25:17;99764.09;;;17.35;33.16
11605;BME280;5858;43.076;25.626;2023-04-28T08:27:45;99680.19;;;17.10;33.40
11605;BME280;5858;43.076;25.626;2023-04-28T08:30:12;99704.66;;;17.22;32.99
11605;BME280;5858;43.076;25.626;2023-04-28T08:32:40;99772.63;;;17.39;31.63
11605;BME280;5858;43.076;25.626;2023-04-28T08:35:09;99709.19;;;16.90;32.59
11605;BME280;5858;43.076;25.626;2023-04-28T08:37:36;99772.13;;;17.10;33.69
11605;BME280;5858;43.076;25.626;2023-04-28T08:40:04;99725.03;;;16.80;33.37
11605;BME280;5858;43.076;25.626;2023-04-28T08:42:34;99687.31;;;16.33;34.16
11605;BME280;5858;43.076;25.626;2023-04-28T08:45:03;99751.63;;;16.83;32.78
11605;BME280;5858;43.076;25.626;2023-04-28T08:47:33;99709.09;;;16.38;33.54
11605;BME280;5858;43.076;25.626;2023-04-28T08:50:05;99789.91;;;16.73;32.91
11605;BME280;5858;43.076;25.626;2023-04-28T08:52:34;99653.97;;;15.62;32.41
11605;BME280;5858;43.076;25.626;2023-04-28T08:55:05;99779.75;;;15.89;32.93
11605;BME280;5858;43.076;25.626;2023-04-28T08:57:36;99779.94;;;15.61;33.53
11605;BME280;5858;43.076;25.626;2023-04-28T09:00:05;99780.00;;;15.27;36.01
11605;BME280;5858;43.076;25.626;2023-04-28T09:02:32;99774.38;;;15.22;36.44
11605;BME280;5858;43.076;25.626;2023-04-28T09:04:59;99734.16;;;14.72;37.92
11605;BME280;5858;43.076;25.626;2023-04-28T09:07:26;99701.31;;;14.56;36.34
11605;BME280;5858;43.076;25.626;2023-04-28T09:10:14;99752.78;;;15.15;36.67
11605;BME280;5858;43.076;25.626;2023-04-28T09:12:41;99767.16;;;15.35;35.17
11605;BME280;5858;43.076;25.626;2023-04-28T09:15:09;99734.00;;;15.55;36.27
11605;BME280;5858;43.076;25.626;2023-04-28T09:17:47;99758.97;;;15.96;34.65
11605;BME280;5858;43.076;25.626;2023-04-28T09:20:21;99769.16;;;16.08;34.73
11605;BME280;5858;43.076;25.626;2023-04-28T09:22:49;99784.34;;;16.15;34.62
11605;BME280;5858;43.076;25.626;2023-04-28T09:25:19;99778.53;;;16.25;35.45
11605;BME280;5858;43.076;25.626;2023-04-28T09:27:47;99688.00;;;16.09;34.23
11605;BME280;5858;43.076;25.626;2023-04-28T09:30:15;99771.63;;;16.49;34.32
11605;BME280;5858;43.076;25.626;2023-04-28T09:32:42;99701.19;;;16.50;34.32
11605;BME280;5858;43.076;25.626;2023-04-28T09:35:09;99765.19;;;16.43;33.70
11605;BME280;5858;43.076;25.626;2023-04-28T09:37:40;99721.41;;;15.82;34.77
11605;BME280;5858;43.076;25.626;2023-04-28T09:40:09;99758.97;;;15.63;35.33
11605;BME280;5858;43.076;25.626;2023-04-28T09:42:39;99700.56;;;15.29;36.96
11605;BME280;5858;43.076;25.626;2023-04-28T09:45:07;99659.44;;;15.01;35.80
11605;BME280;5858;43.076;25.626;2023-04-28T09:47:39;99724.03;;;15.55;36.50
11605;BME280;5858;43.076;25.626;2023-04-28T09:50:07;99756.28;;;15.63;35.99
11605;BME280;5858;43.076;25.626;2023-04-28T09:52:37;99747.44;;;15.35;35.79
11605;BME280;5858;43.076;25.626;2023-04-28T09:55:05;99710.63;;;14.94;35.31
11605;BME280;5858;43.076;25.626;2023-04-28T09:57:34;99701.91;;;14.99;37.39
11605;BME280;5858;43.076;25.626;2023-04-28T10:00:04;99738.56;;;15.48;35.91
11605;BME280;5858;43.076;25.626;2023-04-28T10:02:34;99693.44;;;15.02;34.95
11605;BME280;5858;43.076;25.626;2023-04-28T10:05:01;99746.38;;;15.16;35.13
11605;BME280;5858;43.076;25.626;2023-04-28T10:07:31;99730.84;;;15.31;35.90
11605;BME280;5858;43.076;25.626;2023-04-28T10:10:00;99702.41;;;15.16;34.57
11605;BME280;5858;43.076;25.626;2023-04-28T10:12:27;99720.13;;;15.58;36.29
11605;BME280;5858;43.076;25.626;2023-04-28T10:14:54;99712.41;;;15.41;35.16
11605;BME280;5858;43.076;25.626;2023-04-28T10:17:23;99577.22;;;14.51;36.02
11605;BME280;5858;43.076;25.626;2023-04-28T10:19:52;99697.38;;;15.06;35.08
11605;BME280;5858;43.076;25.626;2023-04-28T10:22:41;99711.66;;;15.00;36.09
11605;BME280;5858;43.076;25.626;2023-04-28T10:25:25;99733.59;;;14.90;36.07
11605;BME280;5858;43.076;25.626;2023-04-28T10:27:53;99728.78;;;14.72;35.83
11605;BME280;5858;43.076;25.626;2023-04-28T10:30:21;99699.69;;;14.27;36.51
11605;BME280;5858;43.076;25.626;2023-04-28T10:33:22;99723.31;;;14.31;37.06
11605;BME280;5858;43.076;25.626;2023-04-28T10:35:50;99702.25;;;14.13;38.20
11605;BME280;5858;43.076;25.626;2023-04-28T10:38:18;99706.38;;;14.37;37.98
11605;BME280;5858;43.076;25.626;2023-04-28T10:40:47;99711.66;;;14.52;36.86
11605;BME280;5858;43.076;25.626;2023-04-28T10:43:32;99652.72;;;14.36;36.41
11605;BME280;5858;43.076;25.626;2023-04-28T10:46:04;99653.25;;;14.53;36.48
11605;BME280;5858;43.076;25.626;2023-04-28T10:48:55;99639.16;;;14.51;36.51
11605;BME280;5858;43.076;25.626;2023-04-28T10:51:27;99698.63;;;15.10;35.90
11605;BME280;5858;43.076;25.626;2023-04-28T10:54:13;99685.00;;;15.25;34.47
11605;BME280;5858;43.076;25.626;2023-04-28T10:57:14;99674.25;;;15.51;34.75
11605;BME280;5858;43.076;25.626;2023-04-28T10:59:41;99712.91;;;15.71;34.75
11605;BME280;5858;43.076;25.626;2023-04-28T11:05:16;99722.03;;;15.90;34.35
11605;BME280;5858;43.076;25.626;2023-04-28T11:11:14;99697.53;;;16.18;33.42
11605;BME280;5858;43.076;25.626;2023-04-28T11:13:42;99659.97;;;15.90;33.81
11605;BME280;5858;43.076;25.626;2023-04-28T11:16:13;99565.53;;;15.37;33.00
11605;BME280;5858;43.076;25.626;2023-04-28T11:18:59;99658.78;;;16.51;34.73
11605;BME280;5858;43.076;25.626;2023-04-28T11:21:31;99613.69;;;16.58;32.65
11605;BME280;5858;43.076;25.626;2023-04-28T11:23:59;99637.84;;;16.91;33.64
11605;BME280;5858;43.076;25.626;2023-04-28T11:26:27;99655.66;;;16.60;33.25
11605;BME280;5858;43.076;25.626;2023-04-28T11:28:56;99577.16;;;15.38;35.00
11605;BME280;5858;43.076;25.626;2023-04-28T11:31:27;99622.41;;;15.69;36.55
11605;BME280;5858;43.076;25.626;2023-04-28T11:33:59;99658.31;;;15.76;36.35
11605;BME280;5858;43.076;25.626;2023-04-28T11:36:38;99700.44;;;15.97;37.13
11605;BME280;5858;43.076;25.626;2023-04-28T11:39:07;99637.31;;;15.38;35.51
11605;BME280;5858;43.076;25.626;2023-04-28T11:41:34;99675.06;;;15.38;35.37
11605;BME280;5858;43.076;25.626;2023-04-28T11:44:09;99590.84;;;15.43;36.46
11605;BME280;5858;43.076;25.626;2023-04-28T11:46:43;99651.88;;;15.70;35.07
11605;BME280;5858;43.076;25.626;2023-04-28T11:49:11;99639.22;;;15.71;35.09
11605;BME280;5858;43.076;25.626;2023-04-28T11:51:41;99702.50;;;16.15;35.23
11605;BME280;5858;43.076;25.626;2023-04-28T11:54:10;99681.50;;;16.30;35.98
11605;BME280;5858;43.076;25.626;2023-04-28T11:56:40;99629.63;;;15.42;36.51
11605;BME280;5858;43.076;25.626;2023-04-28T11:59:15;99668.63;;;15.53;36.32
11605;BME280;5858;43.076;25.626;2023-04-28T12:01:57;99673.00;;;15.47;35.89
11605;BME280;5858;43.076;25.626;2023-04-28T12:04:27;99605.13;;;15.10;36.36
11605;BME280;5858;43.076;25.626;2023-04-28T12:07:01;99547.53;;;14.37;36.20
11605;BME280;5858;43.076;25.626;2023-04-28T12:09:29;99643.47;;;15.12;36.64
11605;BME280;5858;43.076;25.626;2023-04-28T12:11:58;99671.34;;;15.53;36.24
11605;BME280;5858;43.076;25.626;2023-04-28T12:14:31;99600.59;;;15.57;36.88
11605;BME280;5858;43.076;25.626;2023-04-28T12:17:00;99623.84;;;15.45;35.99
11605;BME280;5858;43.076;25.626;2023-04-28T12:19:28;99622.59;;;15.48;35.73
11605;BME280;5858;43.076;25.626;2023-04-28T12:22:02;99596.88;;;15.38;36.52
11605;BME280;5858;43.076;25.626;2023-04-28T12:24:29;99633.81;;;15.58;34.80
11605;BME280;5858;43.076;25.626;2023-04-28T12:27:17;99633.19;;;15.76;35.81
11605;BME280;5858;43.076;25.626;2023-04-28T12:29:46;99480.75;;;15.00;35.38
11605;BME280;5858;43.076;25.626;2023-04-28T12:32:13;99592.72;;;15.82;37.25
11605;BME280;5858;43.076;25.626;2023-04-28T12:34:43;99634.16;;;16.21;35.31
11605;BME280;5858;43.076;25.626;2023-04-28T12:37:12;99577.09;;;16.11;35.16
11605;BME280;5858;43.076;25.626;2023-04-28T12:39:40;99626.75;;;16.54;35.04
11605;BME280;5858;43.076;25.626;2023-04-28T12:42:07;99596.66;;;15.60;34.38
11605;BME280;5858;43.076;25.626;2023-04-28T12:44:35;99565.31;;;15.79;35.54
11605;BME280;5858;43.076;25.626;2023-04-28T12:47:03;99581.06;;;15.95;34.77
11605;BME280;5858;43.076;25.626;2023-04-28T12:49:32;99589.28;;;16.26;35.10
11605;BME280;5858;43.076;25.626;2023-04-28T12:51:59;99605.63;;;16.45;35.02
11605;BME280;5858;43.076;25.626;2023-04-28T12:54:28;99516.59;;;15.40;35.16
11605;BME280;5858;43.076;25.626;2023-04-28T12:56:55;99518.47;;;15.40;35.23
11605;BME280;5858;43.076;25.626;2023-04-28T12:59:22;99547.28;;;15.39;34.99
11605;BME280;5858;43.076;25.626;2023-04-28T13:01:50;99538.78;;;15.09;36.10
11605;BME280;5858;43.076;25.626;2023-04-28T13:04:17;99599.59;;;15.65;37.18
11605;BME280;5858;43.076;25.626;2023-04-28T13:06:44;99547.06;;;15.41;34.94
11605;BME280;5858;43.076;25.626;2023-04-28T13:09:11;99534.00;;;15.58;35.25
11605;BME280;5858;43.076;25.626;2023-04-28T13:11:41;99562.09;;;16.21;35.00
11605;BME280;5858;43.076;25.626;2023-04-28T13:14:08;99486.13;;;16.04;34.46
11605;BME280;5858;43.076;25.626;2023-04-28T13:16:35;99580.97;;;17.11;34.14